Time;durP1;ratioP1;P1;durP2;ratioP2;P2;SDS_P1;SDS_P2;PMS_P1;PMS_P2;Temp;Humidity;BMP_temperature;BMP_pressure;BME280_temperature;BME280_humidity;BME280_pressure;Samples;Min_cycle;Max_cycle;Signal;HPM_P1;HPM_P2
2023/01/31 00:02:23;;;;;;;7.88;1.02;;;;;;;;;;5064053;28;20123;-63
2023/01/31 00:04:49;;;;;;;10.65;1.50;;;;;;;;;;5068914;28;20484;-62
2023/01/31 00:07:14;;;;;;;9.40;1.35;;;;;;;;;;5075280;28;20021;-63
2023/01/31 00:09:39;;;;;;;12.00;1.20;;;;;;;;;;5075564;28;20024;-63
2023/01/31 00:12:04;;;;;;;11.88;1.77;;;;;;;;;;5069811;28;20033;-62
2023/01/31 00:14:29;;;;;;;9.85;1.17;;;;;;;;;;5071386;28;20059;-63
2023/01/31 00:16:55;;;;;;;9.55;1.58;;;;;;;;;;5074599;28;20063;-63
2023/01/31 00:19:20;;;;;;;12.67;1.30;;;;;;;;;;5079403;28;20033;-66
2023/01/31 00:21:45;;;;;;;8.90;1.20;;;;;;;;;;5073046;28;20473;-63
2023/01/31 00:24:11;;;;;;;15.60;2.03;;;;;;;;;;5084803;28;20017;-62
2023/01/31 00:26:36;;;;;;;7.93;1.58;;;;;;;;;;5080040;28;20501;-62
2023/01/31 00:29:02;;;;;;;12.32;1.52;;;;;;;;;;5068442;28;20029;-64
2023/01/31 00:31:28;;;;;;;9.68;1.20;;;;;;;;;;5065164;28;20386;-63
2023/01/31 00:33:54;;;;;;;10.90;1.40;;;;;;;;;;5074248;28;20073;-63
2023/01/31 00:36:20;;;;;;;9.52;1.10;;;;;;;;;;5078946;28;20388;-63
2023/01/31 00:38:49;;;;;;;8.07;1.27;;;;;;;;;;5088278;28;20063;-65
2023/01/31 00:41:14;;;;;;;11.30;1.30;;;;;;;;;;5073862;28;20489;-63
2023/01/31 00:43:39;;;;;;;6.13;0.90;;;;;;;;;;5074591;28;20031;-63
2023/01/31 00:46:05;;;;;;;10.30;1.27;;;;;;;;;;5073090;28;20386;-63
2023/01/31 00:48:30;;;;;;;11.57;1.52;;;;;;;;;;5078893;28;20012;-65
2023/01/31 00:50:55;;;;;;;12.40;1.80;;;;;;;;;;5073261;28;20021;-64
2023/01/31 00:53:24;;;;;;;7.60;1.08;;;;;;;;;;5082523;28;20051;-62
2023/01/31 00:55:50;;;;;;;9.82;1.48;;;;;;;;;;5082743;28;20056;-63
2023/01/31 00:58:15;;;;;;;7.88;1.30;;;;;;;;;;5073072;28;20047;-64
2023/01/31 01:00:40;;;;;;;11.53;1.13;;;;;;;;;;5077363;28;20397;-64
2023/01/31 01:03:06;;;;;;;5.82;0.90;;;;;;;;;;5079176;28;20462;-63
2023/01/31 01:05:31;;;;;;;6.77;1.07;;;;;;;;;;5085013;28;20035;-63
2023/01/31 01:07:56;;;;;;;9.38;0.95;;;;;;;;;;5075801;28;20078;-63
2023/01/31 01:10:21;;;;;;;8.13;1.20;;;;;;;;;;5089696;28;20449;-62
2023/01/31 01:12:46;;;;;;;8.93;0.90;;;;;;;;;;5082636;28;20059;-64
2023/01/31 01:15:11;;;;;;;8.38;0.80;;;;;;;;;;5086462;28;20111;-63
2023/01/31 01:17:36;;;;;;;6.60;0.90;;;;;;;;;;5081646;28;20421;-63
2023/01/31 01:20:02;;;;;;;4.47;0.80;;;;;;;;;;5091869;28;20067;-63
2023/01/31 01:22:28;;;;;;;6.60;1.10;;;;;;;;;;5066556;28;20040;-65
2023/01/31 01:24:53;;;;;;;4.10;0.60;;;;;;;;;;5074623;28;20047;-64
2023/01/31 01:27:19;;;;;;;6.88;0.68;;;;;;;;;;5076202;28;20035;-64
2023/01/31 01:29:44;;;;;;;5.55;0.68;;;;;;;;;;5063583;28;20036;-64
2023/01/31 01:32:09;;;;;;;6.30;0.60;;;;;;;;;;5076964;28;20165;-62
2023/01/31 01:34:34;;;;;;;4.63;0.57;;;;;;;;;;5075391;28;20024;-63
2023/01/31 01:36:59;;;;;;;5.50;0.60;;;;;;;;;;5073004;28;20028;-62
2023/01/31 01:39:28;;;;;;;4.37;0.60;;;;;;;;;;5073695;28;20062;-63
2023/01/31 01:41:54;;;;;;;6.65;0.77;;;;;;;;;;5071835;28;20066;-63
2023/01/31 01:44:37;;;;;;;4.53;0.70;;;;;;;;;;5064008;28;20412;-63
2023/01/31 01:47:02;;;;;;;7.75;1.02;;;;;;;;;;5067556;28;20024;-65
2023/01/31 01:49:34;;;;;;;5.90;0.70;;;;;;;;;;5084895;28;20100;-65
2023/01/31 01:52:01;;;;;;;9.77;1.00;;;;;;;;;;5078220;28;20028;-62
2023/01/31 01:54:30;;;;;;;5.78;1.27;;;;;;;;;;5077134;28;20051;-63
2023/01/31 01:56:57;;;;;;;6.30;1.20;;;;;;;;;;5075339;28;20031;-63
2023/01/31 01:59:30;;;;;;;7.38;1.52;;;;;;;;;;5082960;28;20046;-64
2023/01/31 02:01:55;;;;;;;7.75;1.02;;;;;;;;;;5071630;28;20131;-63
2023/01/31 02:04:23;;;;;;;11.57;1.23;;;;;;;;;;5069460;28;20035;-65
2023/01/31 02:06:48;;;;;;;12.50;1.45;;;;;;;;;;5074706;28;20119;-64
2023/01/31 02:09:19;;;;;;;7.03;1.00;;;;;;;;;;5077055;28;20112;-63
2023/01/31 02:11:44;;;;;;;8.25;1.35;;;;;;;;;;5075561;28;20158;-64
2023/01/31 02:14:10;;;;;;;8.70;1.17;;;;;;;;;;5066901;28;20124;-63
2023/01/31 02:16:35;;;;;;;6.85;1.20;;;;;;;;;;5077225;28;20023;-66
2023/01/31 02:19:01;;;;;;;6.05;0.90;;;;;;;;;;5075918;28;20473;-64
2023/01/31 02:21:51;;;;;;;9.63;1.23;;;;;;;;;;5078553;28;20482;-62
2023/01/31 02:24:19;;;;;;;4.88;0.90;;;;;;;;;;5070853;28;20051;-65
2023/01/31 02:27:08;;;;;;;12.15;1.48;;;;;;;;;;5081069;28;20024;-64
2023/01/31 02:29:54;;;;;;;10.52;1.52;;;;;;;;;;5066165;28;20047;-64
2023/01/31 02:32:34;;;;;;;10.35;1.17;;;;;;;;;;5069660;28;20028;-64
2023/01/31 02:35:16;;;;;;;11.70;1.60;;;;;;;;;;5083631;28;20091;-65
2023/01/31 02:37:44;;;;;;;9.82;1.42;;;;;;;;;;5079743;28;20129;-64
2023/01/31 02:40:28;;;;;;;11.60;1.65;;;;;;;;;;5069321;28;20037;-65
2023/01/31 02:42:58;;;;;;;12.52;1.77;;;;;;;;;;5067332;28;20694;-63
2023/01/31 02:45:38;;;;;;;11.82;1.13;;;;;;;;;;5066800;28;20028;-64
2023/01/31 02:48:03;;;;;;;10.27;1.65;;;;;;;;;;5069535;28;20036;-64
2023/01/31 02:50:31;;;;;;;15.07;2.30;;;;;;;;;;5079539;28;20081;-63
2023/01/31 02:53:05;;;;;;;9.90;2.05;;;;;;;;;;5069821;28;20036;-63
2023/01/31 02:58:43;;;;;;;13.23;1.42;;;;;;;;;;5070491;28;20211;-63
2023/01/31 03:01:11;;;;;;;12.35;1.60;;;;;;;;;;5071958;28;20146;-64
2023/01/31 03:03:36;;;;;;;10.65;1.50;;;;;;;;;;5069009;28;20135;-62
2023/01/31 03:06:23;;;;;;;12.02;1.80;;;;;;;;;;5080297;28;20055;-63
2023/01/31 03:09:03;;;;;;;9.88;1.30;;;;;;;;;;5074892;28;20108;-63
2023/01/31 03:11:48;;;;;;;11.43;1.35;;;;;;;;;;5066936;28;20086;-62
2023/01/31 03:14:26;;;;;;;10.25;1.35;;;;;;;;;;5076207;28;20032;-63
2023/01/31 03:19:47;;;;;;;10.43;1.27;;;;;;;;;;5068493;28;20098;-64
2023/01/31 03:22:16;;;;;;;10.23;1.23;;;;;;;;;;5070826;28;20094;-62
2023/01/31 03:24:42;;;;;;;11.70;1.77;;;;;;;;;;5056690;28;20048;-65
2023/01/31 03:27:07;;;;;;;8.85;1.00;;;;;;;;;;5073367;28;20085;-62
2023/01/31 03:29:34;;;;;;;11.77;1.33;;;;;;;;;;5069308;28;20016;-63
2023/01/31 03:32:03;;;;;;;8.63;1.00;;;;;;;;;;5072530;28;20016;-64
2023/01/31 03:34:29;;;;;;;8.75;1.13;;;;;;;;;;5068970;28;20064;-64
2023/01/31 03:36:57;;;;;;;10.60;1.48;;;;;;;;;;5067824;28;20059;-65
2023/01/31 03:39:25;;;;;;;11.95;1.08;;;;;;;;;;5076817;28;20036;-63
2023/01/31 03:42:01;;;;;;;14.15;1.35;;;;;;;;;;5074216;28;20023;-61
2023/01/31 03:44:35;;;;;;;11.50;1.50;;;;;;;;;;5057934;28;20017;-62
2023/01/31 03:47:04;;;;;;;10.35;1.33;;;;;;;;;;5077830;28;20028;-62
2023/01/31 03:49:30;;;;;;;8.93;1.20;;;;;;;;;;5069271;28;20092;-63
2023/01/31 03:51:59;;;;;;;7.35;1.00;;;;;;;;;;5076041;28;20067;-65
2023/01/31 03:54:26;;;;;;;10.63;1.52;;;;;;;;;;5068232;28;20021;-64
2023/01/31 03:56:54;;;;;;;4.82;1.10;;;;;;;;;;5068648;28;20063;-63
2023/01/31 03:59:25;;;;;;;5.72;0.93;;;;;;;;;;5069694;28;20389;-66
2023/01/31 04:01:52;;;;;;;7.38;1.15;;;;;;;;;;5074270;28;20479;-64
2023/01/31 04:04:24;;;;;;;9.55;1.00;;;;;;;;;;5078780;28;20541;-63
2023/01/31 04:06:49;;;;;;;8.00;1.20;;;;;;;;;;5087069;28;20070;-64
2023/01/31 04:09:15;;;;;;;8.47;1.17;;;;;;;;;;5068242;28;20067;-64
2023/01/31 04:11:40;;;;;;;8.25;1.10;;;;;;;;;;5074716;28;20035;-63
2023/01/31 04:14:06;;;;;;;9.63;1.35;;;;;;;;;;5069005;28;20134;-65
2023/01/31 04:16:31;;;;;;;8.95;1.60;;;;;;;;;;5068927;28;20107;-63
2023/01/31 04:18:57;;;;;;;7.28;1.30;;;;;;;;;;5065790;28;20032;-64
2023/01/31 04:21:22;;;;;;;5.97;0.97;;;;;;;;;;5070831;28;20397;-62
2023/01/31 04:23:47;;;;;;;8.63;1.10;;;;;;;;;;5071088;28;20024;-63
2023/01/31 04:26:12;;;;;;;8.20;1.50;;;;;;;;;;5066199;28;20028;-63
2023/01/31 04:28:38;;;;;;;7.70;1.30;;;;;;;;;;5068541;28;20097;-63
2023/01/31 04:31:03;;;;;;;9.88;1.30;;;;;;;;;;5077054;28;20120;-64
2023/01/31 04:33:29;;;;;;;7.55;1.55;;;;;;;;;;5073453;28;20025;-63
2023/01/31 04:35:54;;;;;;;7.78;1.30;;;;;;;;;;5069116;28;20056;-62
2023/01/31 04:38:19;;;;;;;14.38;2.88;;;;;;;;;;5068057;28;20058;-63
2023/01/31 04:40:44;;;;;;;12.77;1.45;;;;;;;;;;5077563;28;20032;-64
2023/01/31 04:43:09;;;;;;;8.03;1.50;;;;;;;;;;5073959;28;20504;-64
2023/01/31 04:45:34;;;;;;;10.75;1.55;;;;;;;;;;5074531;28;20365;-62
2023/01/31 04:47:59;;;;;;;11.25;1.55;;;;;;;;;;5068583;28;20099;-63
2023/01/31 04:50:25;;;;;;;9.48;1.30;;;;;;;;;;5066576;28;20454;-61
2023/01/31 04:52:50;;;;;;;13.25;1.45;;;;;;;;;;5056891;28;20013;-64
2023/01/31 04:55:16;;;;;;;8.32;1.48;;;;;;;;;;5071757;28;20070;-62
2023/01/31 04:57:41;;;;;;;11.03;1.33;;;;;;;;;;5059739;28;20028;-62
2023/01/31 05:00:06;;;;;;;7.47;1.23;;;;;;;;;;5073212;28;20032;-64
2023/01/31 05:02:31;;;;;;;9.70;1.45;;;;;;;;;;5071232;28;20114;-62
2023/01/31 05:04:57;;;;;;;8.32;1.17;;;;;;;;;;5070306;28;20525;-63
2023/01/31 05:07:22;;;;;;;6.30;0.85;;;;;;;;;;5069740;28;20023;-64
2023/01/31 05:09:47;;;;;;;9.18;1.02;;;;;;;;;;5079456;28;20037;-62
2023/01/31 05:12:12;;;;;;;12.30;1.37;;;;;;;;;;5080364;28;20381;-62
2023/01/31 05:14:37;;;;;;;10.07;1.48;;;;;;;;;;5073077;28;20618;-63
2023/01/31 05:17:03;;;;;;;9.67;1.20;;;;;;;;;;5071684;28;20059;-63
2023/01/31 05:19:28;;;;;;;10.63;1.30;;;;;;;;;;5179680;22;20024;-64
2023/01/31 05:21:59;;;;;;;9.57;1.58;;;;;;;;;;5064510;28;20044;-63
2023/01/31 05:24:26;;;;;;;13.00;1.75;;;;;;;;;;5067248;28;20016;-64
2023/01/31 05:26:55;;;;;;;8.93;1.50;;;;;;;;;;5069406;28;20016;-63
2023/01/31 05:29:20;;;;;;;9.05;1.33;;;;;;;;;;5065327;28;20051;-63
2023/01/31 05:31:45;;;;;;;14.73;1.53;;;;;;;;;;5060680;28;20454;-63
2023/01/31 05:34:14;;;;;;;9.55;1.35;;;;;;;;;;5065850;28;20027;-63
2023/01/31 05:36:39;;;;;;;9.48;1.13;;;;;;;;;;5063655;28;20013;-61
2023/01/31 05:39:04;;;;;;;11.05;1.58;;;;;;;;;;5060769;28;20035;-62
2023/01/31 05:41:30;;;;;;;11.20;1.23;;;;;;;;;;5063296;28;20044;-62
2023/01/31 05:43:55;;;;;;;9.53;2.20;;;;;;;;;;5068603;28;20107;-61
2023/01/31 05:46:21;;;;;;;8.82;1.15;;;;;;;;;;5076833;28;20126;-62
2023/01/31 05:48:46;;;;;;;9.93;1.45;;;;;;;;;;5070858;28;20032;-61
2023/01/31 05:51:11;;;;;;;9.25;1.27;;;;;;;;;;5059302;28;20024;-62
2023/01/31 05:53:36;;;;;;;10.15;1.17;;;;;;;;;;5058238;28;20541;-61
2023/01/31 05:56:01;;;;;;;11.63;1.40;;;;;;;;;;5063946;28;20453;-61
2023/01/31 05:58:26;;;;;;;11.88;1.55;;;;;;;;;;5058196;28;20025;-62
2023/01/31 06:00:54;;;;;;;9.73;1.30;;;;;;;;;;5062368;28;20115;-61
2023/01/31 06:03:19;;;;;;;11.30;1.60;;;;;;;;;;5061397;28;20020;-62
2023/01/31 06:05:44;;;;;;;6.95;1.17;;;;;;;;;;5058998;28;20025;-62
2023/01/31 06:08:09;;;;;;;10.55;1.70;;;;;;;;;;5057860;28;20039;-61
2023/01/31 06:10:35;;;;;;;11.25;1.52;;;;;;;;;;5055965;28;20546;-62
2023/01/31 06:13:00;;;;;;;14.60;1.77;;;;;;;;;;5064085;28;20032;-62
2023/01/31 06:15:25;;;;;;;11.18;1.73;;;;;;;;;;5068823;28;20550;-61
2023/01/31 06:17:50;;;;;;;8.18;1.30;;;;;;;;;;5069503;28;20024;-61
2023/01/31 06:20:16;;;;;;;10.30;1.90;;;;;;;;;;5069554;28;20062;-61
2023/01/31 06:22:41;;;;;;;9.60;1.40;;;;;;;;;;5064425;28;20012;-62
2023/01/31 06:25:06;;;;;;;7.45;1.42;;;;;;;;;;5067964;28;20040;-62
2023/01/31 06:27:32;;;;;;;9.57;1.30;;;;;;;;;;5071706;28;20107;-61
2023/01/31 06:29:57;;;;;;;6.38;1.35;;;;;;;;;;5071620;28;20488;-61
2023/01/31 06:32:22;;;;;;;4.88;1.27;;;;;;;;;;5071917;28;20027;-62
2023/01/31 06:34:47;;;;;;;11.23;1.80;;;;;;;;;;5071768;28;20032;-62
2023/01/31 06:37:13;;;;;;;8.95;1.52;;;;;;;;;;5070839;28;20044;-62
2023/01/31 06:39:38;;;;;;;8.27;1.30;;;;;;;;;;5071577;28;20059;-61
2023/01/31 06:42:03;;;;;;;10.45;1.67;;;;;;;;;;5071047;28;20081;-62
2023/01/31 06:44:28;;;;;;;7.68;1.30;;;;;;;;;;5071340;28;20024;-61
2023/01/31 06:46:53;;;;;;;6.40;1.27;;;;;;;;;;5071979;28;20017;-61
2023/01/31 06:49:19;;;;;;;10.00;1.73;;;;;;;;;;5071906;28;20036;-61
2023/01/31 06:51:44;;;;;;;9.43;1.30;;;;;;;;;;5071223;28;20058;-62
2023/01/31 06:54:09;;;;;;;7.93;1.27;;;;;;;;;;5071898;28;20032;-61
2023/01/31 06:56:34;;;;;;;5.55;0.93;;;;;;;;;;5070125;28;20016;-62
2023/01/31 06:58:59;;;;;;;10.10;1.47;;;;;;;;;;5071896;28;20132;-61
2023/01/31 07:01:25;;;;;;;9.03;1.63;;;;;;;;;;5070995;28;20029;-62
2023/01/31 07:03:50;;;;;;;13.65;1.50;;;;;;;;;;5071474;28;20506;-62
2023/01/31 07:06:18;;;;;;;9.13;1.10;;;;;;;;;;5069890;28;20019;-62
2023/01/31 07:08:43;;;;;;;11.65;1.33;;;;;;;;;;5071482;28;20052;-62
2023/01/31 07:11:08;;;;;;;4.70;1.08;;;;;;;;;;5067255;28;20479;-61
2023/01/31 07:13:34;;;;;;;10.13;1.27;;;;;;;;;;5070975;28;20031;-62
2023/01/31 07:15:59;;;;;;;9.43;1.17;;;;;;;;;;5059435;28;20029;-62
2023/01/31 07:18:24;;;;;;;9.77;1.58;;;;;;;;;;5068426;28;20474;-62
2023/01/31 07:20:50;;;;;;;11.13;1.05;;;;;;;;;;5068262;28;20028;-61
2023/01/31 07:23:15;;;;;;;11.07;1.20;;;;;;;;;;5070594;28;20527;-61
2023/01/31 07:25:40;;;;;;;10.05;1.23;;;;;;;;;;5069658;28;20028;-61
2023/01/31 07:28:05;;;;;;;8.53;1.07;;;;;;;;;;5063126;28;20016;-61
2023/01/31 07:30:30;;;;;;;8.00;1.48;;;;;;;;;;5062552;28;20027;-61
2023/01/31 07:32:56;;;;;;;10.73;1.23;;;;;;;;;;5068992;28;20103;-61
2023/01/31 07:35:21;;;;;;;9.03;1.10;;;;;;;;;;5067114;28;20051;-62
2023/01/31 07:37:46;;;;;;;9.75;1.20;;;;;;;;;;5070294;28;20383;-62
2023/01/31 07:40:13;;;;;;;6.60;0.73;;;;;;;;;;5061293;28;20040;-61
2023/01/31 07:42:39;;;;;;;7.38;1.15;;;;;;;;;;5049799;28;20013;-62
2023/01/31 07:45:04;;;;;;;8.55;1.35;;;;;;;;;;5049884;28;20428;-61
2023/01/31 07:47:29;;;;;;;9.43;1.10;;;;;;;;;;5066039;28;20023;-61
2023/01/31 07:49:55;;;;;;;11.05;1.30;;;;;;;;;;5070070;28;20087;-60
2023/01/31 07:52:20;;;;;;;8.77;1.30;;;;;;;;;;5068708;28;20036;-60
2023/01/31 07:54:45;;;;;;;9.80;1.20;;;;;;;;;;5070392;28;20099;-60
2023/01/31 07:57:12;;;;;;;10.27;1.60;;;;;;;;;;5070448;28;20016;-60
2023/01/31 07:59:37;;;;;;;5.82;1.00;;;;;;;;;;5069989;28;20574;-60
2023/01/31 08:04:45;;;;;;;9.10;1.20;;;;;;;;;;5070111;28;20035;-60
2023/01/31 08:07:11;;;;;;;8.82;1.23;;;;;;;;;;5069190;28;20418;-60
2023/01/31 08:09:37;;;;;;;10.52;1.45;;;;;;;;;;5068802;28;20055;-60
2023/01/31 08:12:03;;;;;;;4.80;1.10;;;;;;;;;;5070061;28;20490;-60
2023/01/31 08:14:28;;;;;;;8.30;1.17;;;;;;;;;;5069173;28;20051;-60
2023/01/31 08:16:54;;;;;;;11.03;1.60;;;;;;;;;;5070063;28;20032;-60
2023/01/31 08:19:19;;;;;;;7.93;1.20;;;;;;;;;;5069697;28;20017;-60
2023/01/31 08:21:44;;;;;;;7.87;1.63;;;;;;;;;;5068034;28;20081;-60
2023/01/31 08:24:09;;;;;;;10.02;1.50;;;;;;;;;;5070062;28;20020;-60
2023/01/31 08:26:35;;;;;;;8.23;1.20;;;;;;;;;;5070106;28;20028;-61
2023/01/31 08:29:00;;;;;;;8.52;1.35;;;;;;;;;;5070061;28;20086;-60
2023/01/31 08:31:26;;;;;;;6.50;1.05;;;;;;;;;;5068574;28;20077;-62
2023/01/31 08:33:52;;;;;;;8.57;1.40;;;;;;;;;;5069444;28;20123;-62
2023/01/31 08:36:24;;;;;;;5.47;0.95;;;;;;;;;;5068885;28;20578;-62
2023/01/31 08:38:50;;;;;;;7.47;1.00;;;;;;;;;;5069269;28;20077;-61
2023/01/31 08:41:16;;;;;;;11.90;1.75;;;;;;;;;;5069327;28;20034;-60
2023/01/31 08:43:42;;;;;;;5.85;1.05;;;;;;;;;;5073330;28;20031;-60
2023/01/31 08:46:07;;;;;;;7.60;1.55;;;;;;;;;;5073319;28;20024;-60
2023/01/31 08:48:33;;;;;;;7.97;1.17;;;;;;;;;;5073520;28;20146;-62
2023/01/31 08:51:04;;;;;;;8.02;1.10;;;;;;;;;;5072654;28;20086;-62
2023/01/31 08:53:29;;;;;;;6.50;1.00;;;;;;;;;;5066457;28;20513;-60
2023/01/31 08:55:58;;;;;;;9.07;1.05;;;;;;;;;;5073659;28;20203;-60
2023/01/31 08:58:24;;;;;;;9.27;1.00;;;;;;;;;;5073670;28;20021;-60
2023/01/31 09:00:49;;;;;;;7.73;1.20;;;;;;;;;;5072760;28;20111;-60
2023/01/31 09:03:17;;;;;;;8.30;1.10;;;;;;;;;;5077203;28;20107;-60
2023/01/31 09:05:42;;;;;;;11.02;1.15;;;;;;;;;;5072777;28;20385;-59
2023/01/31 09:08:07;;;;;;;8.07;1.20;;;;;;;;;;5072251;28;20020;-60
2023/01/31 09:10:32;;;;;;;7.47;0.90;;;;;;;;;;5067218;28;20032;-60
2023/01/31 09:12:58;;;;;;;6.25;1.20;;;;;;;;;;5071754;28;20047;-60
2023/01/31 09:15:23;;;;;;;7.65;1.15;;;;;;;;;;5073123;28;20035;-60
2023/01/31 09:17:48;;;;;;;9.63;1.17;;;;;;;;;;5073443;28;20100;-60
2023/01/31 09:20:13;;;;;;;7.13;1.00;;;;;;;;;;5072653;28;20043;-60
2023/01/31 09:22:39;;;;;;;9.30;1.20;;;;;;;;;;5071809;28;20035;-60
2023/01/31 09:25:04;;;;;;;8.70;1.33;;;;;;;;;;5072695;28;20024;-60
2023/01/31 09:27:30;;;;;;;7.13;1.05;;;;;;;;;;5073416;28;20025;-60
2023/01/31 09:29:55;;;;;;;8.93;1.10;;;;;;;;;;5072813;28;20016;-59
2023/01/31 09:32:20;;;;;;;7.30;1.20;;;;;;;;;;5072997;28;20496;-59
2023/01/31 09:34:47;;;;;;;8.07;1.13;;;;;;;;;;5073013;28;20020;-60
2023/01/31 09:37:12;;;;;;;7.65;1.02;;;;;;;;;;5072463;28;20119;-60
2023/01/31 09:39:38;;;;;;;5.60;0.95;;;;;;;;;;5071635;28;20104;-60
2023/01/31 09:42:13;;;;;;;9.83;0.97;;;;;;;;;;5072845;28;20389;-60
2023/01/31 09:44:40;;;;;;;10.63;1.10;;;;;;;;;;5072636;28;20114;-62
2023/01/31 09:47:05;;;;;;;;;;;;;;;;;;5073736;28;20046;-62
2023/01/31 09:49:36;;;;;;;4.35;0.75;;;;;;;;;;5073189;28;19991;-61
2023/01/31 09:52:02;;;;;;;9.63;1.40;;;;;;;;;;5071593;28;20029;-61
2023/01/31 09:54:30;;;;;;;6.75;1.52;;;;;;;;;;5063671;28;20024;-61
2023/01/31 09:57:00;;;;;;;6.20;1.02;;;;;;;;;;5072703;28;20381;-61
2023/01/31 09:59:49;;;;;;;6.07;0.80;;;;;;;;;;5072121;28;20020;-61
2023/01/31 10:02:21;;;;;;;7.45;1.20;;;;;;;;;;5064568;28;20130;-61
2023/01/31 10:05:13;;;;;;;6.90;1.20;;;;;;;;;;5072740;28;20112;-61
2023/01/31 10:07:52;;;;;;;5.32;1.10;;;;;;;;;;5065827;28;20468;-61
2023/01/31 10:10:29;;;;;;;6.95;2.35;;;;;;;;;;5072706;28;20020;-60
2023/01/31 10:12:56;;;;;;;5.40;1.10;;;;;;;;;;5072723;28;20056;-61
2023/01/31 10:15:21;;;;;;;;;;;;;;;;;;5073672;28;20025;-59
2023/01/31 10:17:52;;;;;;;6.35;1.20;;;;;;;;;;5072469;28;20081;-59
2023/01/31 10:20:38;;;;;;;10.02;1.20;;;;;;;;;;5069220;28;20043;-61
2023/01/31 10:23:16;;;;;;;6.78;1.10;;;;;;;;;;5073033;28;20020;-61
2023/01/31 10:25:47;;;;;;;6.80;1.42;;;;;;;;;;5072980;28;20493;-59
2023/01/31 10:28:14;;;;;;;10.18;1.13;;;;;;;;;;5072136;28;20016;-60
2023/01/31 10:30:39;;;;;;;;;;;;;;;;;;5071817;28;20029;-60
2023/01/31 10:33:18;;;;;;;10.63;1.40;;;;;;;;;;5070905;28;19939;-60
2023/01/31 10:35:44;;;;;;;7.25;1.13;;;;;;;;;;5070241;28;20500;-61
2023/01/31 10:38:16;;;;;;;6.82;1.10;;;;;;;;;;5071726;28;20501;-60
2023/01/31 10:40:43;;;;;;;7.45;1.10;;;;;;;;;;5071070;28;20028;-61
2023/01/31 10:43:12;;;;;;;6.80;1.05;;;;;;;;;;5071406;28;20351;-60
2023/01/31 10:45:38;;;;;;;5.30;0.95;;;;;;;;;;5071266;28;20028;-60
2023/01/31 10:48:20;;;;;;;12.23;1.93;;;;;;;;;;5070737;28;20021;-61
2023/01/31 10:51:01;;;;;;;7.80;1.10;;;;;;;;;;5070197;28;20021;-62
2023/01/31 10:53:45;;;;;;;7.93;1.20;;;;;;;;;;5071795;28;20111;-61
2023/01/31 10:56:15;;;;;;;8.93;1.10;;;;;;;;;;5071369;28;20036;-62
2023/01/31 10:58:41;;;;;;;5.63;1.00;;;;;;;;;;5071522;28;20021;-62
2023/01/31 11:01:13;;;;;;;5.50;0.90;;;;;;;;;;5070553;28;20361;-59
2023/01/31 11:03:39;;;;;;;6.32;1.00;;;;;;;;;;5071813;28;20016;-61
2023/01/31 11:06:05;;;;;;;10.13;1.20;;;;;;;;;;5070113;28;20029;-62
2023/01/31 11:08:36;;;;;;;11.13;1.75;;;;;;;;;;5070360;28;20396;-61
2023/01/31 11:11:09;;;;;;;7.05;1.05;;;;;;;;;;5069986;28;20040;-62
2023/01/31 11:13:34;;;;;;;5.00;0.80;;;;;;;;;;5071127;28;20058;-61
2023/01/31 11:16:00;;;;;;;7.53;1.20;;;;;;;;;;5069187;28;20474;-63
2023/01/31 11:18:27;;;;;;;7.60;1.30;;;;;;;;;;5070209;28;20019;-62
2023/01/31 11:20:52;;;;;;;7.07;1.30;;;;;;;;;;5070754;28;20082;-60
2023/01/31 11:23:21;;;;;;;6.43;1.17;;;;;;;;;;5067724;28;20029;-62
2023/01/31 11:25:48;;;;;;;7.35;1.20;;;;;;;;;;5070655;28;20024;-60
2023/01/31 11:28:13;;;;;;;;;;;;;;;;;;5071172;28;20043;-60
2023/01/31 11:30:39;;;;;;;10.00;1.50;;;;;;;;;;5070544;28;19904;-59
2023/01/31 11:33:04;;;;;;;7.10;1.40;;;;;;;;;;5069941;28;20106;-63
2023/01/31 11:35:31;;;;;;;6.40;1.30;;;;;;;;;;5070558;28;20477;-62
2023/01/31 11:37:57;;;;;;;8.45;1.10;;;;;;;;;;5070229;28;20070;-60
2023/01/31 11:40:31;;;;;;;6.38;1.13;;;;;;;;;;5069766;28;20374;-61
2023/01/31 11:42:58;;;;;;;8.20;1.27;;;;;;;;;;5070609;28;20040;-60
2023/01/31 11:45:26;;;;;;;8.02;1.27;;;;;;;;;;5070372;28;20013;-60
2023/01/31 11:47:52;;;;;;;8.05;1.20;;;;;;;;;;5070062;28;20021;-62
2023/01/31 11:50:30;;;;;;;6.22;1.17;;;;;;;;;;5069326;28;20027;-62
2023/01/31 11:53:02;;;;;;;7.28;1.50;;;;;;;;;;5070500;28;20504;-61
2023/01/31 11:55:34;;;;;;;7.95;1.40;;;;;;;;;;5069300;28;20047;-62
2023/01/31 11:58:00;;;;;;;8.88;1.50;;;;;;;;;;5069483;28;20105;-61
2023/01/31 12:00:26;;;;;;;6.40;1.02;;;;;;;;;;5069144;28;20052;-62
2023/01/31 12:03:18;;;;;;;6.57;1.13;;;;;;;;;;5069408;28;20013;-62
2023/01/31 12:05:44;;;;;;;7.45;1.10;;;;;;;;;;5062796;28;20016;-63
2023/01/31 12:08:26;;;;;;;4.75;1.00;;;;;;;;;;5070534;28;20043;-62
2023/01/31 12:10:51;;;;;;;7.20;1.20;;;;;;;;;;5069071;28;20422;-61
2023/01/31 12:13:18;;;;;;;6.57;1.20;;;;;;;;;;5070129;28;20064;-62
2023/01/31 12:15:49;;;;;;;7.40;1.23;;;;;;;;;;5069964;28;20024;-62
2023/01/31 12:18:17;;;;;;;8.70;1.48;;;;;;;;;;5069361;28;20028;-62
2023/01/31 12:20:47;;;;;;;7.43;1.50;;;;;;;;;;5069099;28;20087;-62
2023/01/31 12:23:31;;;;;;;6.43;1.20;;;;;;;;;;5071048;28;20028;-61
2023/01/31 12:26:02;;;;;;;6.55;1.50;;;;;;;;;;5067905;28;20024;-61
2023/01/31 12:28:32;;;;;;;12.40;1.70;;;;;;;;;;5069225;28;20035;-63
2023/01/31 12:30:57;;;;;;;9.15;1.80;;;;;;;;;;5068166;28;20133;-62
2023/01/31 12:33:22;;;;;;;8.87;1.37;;;;;;;;;;5066856;28;20576;-62
2023/01/31 12:35:47;;;;;;;8.75;1.73;;;;;;;;;;5064617;28;20508;-62
2023/01/31 12:38:27;;;;;;;8.77;1.60;;;;;;;;;;5063434;28;20027;-62
2023/01/31 12:41:01;;;;;;;8.35;1.42;;;;;;;;;;5057542;28;20041;-61
2023/01/31 12:43:37;;;;;;;9.57;1.80;;;;;;;;;;5064639;28;20583;-61
2023/01/31 12:46:05;;;;;;;5.70;1.50;;;;;;;;;;5060325;28;20029;-62
2023/01/31 12:48:31;;;;;;;7.45;1.60;;;;;;;;;;5064966;28;20025;-61
2023/01/31 12:51:14;;;;;;;7.00;1.60;;;;;;;;;;5064137;28;20021;-61
2023/01/31 12:53:51;;;;;;;8.38;1.75;;;;;;;;;;5061354;28;20064;-61
2023/01/31 12:56:22;;;;;;;8.82;2.40;;;;;;;;;;5061000;28;20526;-61
2023/01/31 12:58:58;;;;;;;7.75;1.70;;;;;;;;;;5061595;28;20037;-62
2023/01/31 13:01:23;;;;;;;8.73;1.58;;;;;;;;;;5059470;28;20029;-61
2023/01/31 13:03:57;;;;;;;7.25;1.80;;;;;;;;;;5064628;28;20020;-61
2023/01/31 13:06:24;;;;;;;8.93;1.80;;;;;;;;;;5063553;28;20098;-61
2023/01/31 13:08:59;;;;;;;8.07;1.73;;;;;;;;;;5068990;28;20017;-61
2023/01/31 13:11:33;;;;;;;9.05;1.67;;;;;;;;;;5065441;28;20020;-62
2023/01/31 13:14:07;;;;;;;9.80;1.90;;;;;;;;;;5068612;28;20043;-62
2023/01/31 13:16:37;;;;;;;9.38;1.83;;;;;;;;;;5059532;28;20378;-61
2023/01/31 13:19:04;;;;;;;10.40;2.10;;;;;;;;;;5064358;28;20035;-62
2023/01/31 13:21:30;;;;;;;;;;;;;;;;;;5062758;28;20036;-62
2023/01/31 13:23:58;;;;;;;7.45;1.67;;;;;;;;;;5068000;28;19919;-62
2023/01/31 13:26:28;;;;;;;9.10;1.90;;;;;;;;;;5067934;28;20017;-61
2023/01/31 13:28:56;;;;;;;6.10;1.63;;;;;;;;;;5059774;28;20666;-61
2023/01/31 13:31:24;;;;;;;8.65;2.47;;;;;;;;;;5073637;28;20100;-61
2023/01/31 13:33:53;;;;;;;7.32;1.60;;;;;;;;;;5071142;28;20473;-61
2023/01/31 13:36:27;;;;;;;8.80;1.60;;;;;;;;;;5072198;28;20020;-61
2023/01/31 13:38:52;;;;;;;7.88;1.70;;;;;;;;;;5055500;28;20025;-60
2023/01/31 13:41:29;;;;;;;6.63;1.88;;;;;;;;;;5067354;28;20059;-62
2023/01/31 13:43:56;;;;;;;6.40;1.63;;;;;;;;;;5072601;28;20381;-60
2023/01/31 13:46:23;;;;;;;7.47;1.88;;;;;;;;;;5069074;28;20539;-61
2023/01/31 13:48:54;;;;;;;9.32;1.70;;;;;;;;;;5071001;28;20111;-60
2023/01/31 13:51:25;;;;;;;8.40;1.85;;;;;;;;;;5064870;28;20021;-61
2023/01/31 13:53:54;;;;;;;7.38;1.70;;;;;;;;;;5070467;28;20016;-61
2023/01/31 13:56:22;;;;;;;5.63;1.52;;;;;;;;;;5068994;28;20033;-61
2023/01/31 13:58:48;;;;;;;5.53;1.63;;;;;;;;;;5069788;28;20481;-61
2023/01/31 14:01:19;;;;;;;8.60;2.00;;;;;;;;;;5067196;28;20435;-61
2023/01/31 14:04:16;;;;;;;8.40;1.90;;;;;;;;;;5068449;28;20021;-61
2023/01/31 14:07:04;;;;;;;9.40;1.85;;;;;;;;;;5067392;28;20059;-62
2023/01/31 14:09:37;;;;;;;7.30;2.35;;;;;;;;;;5063811;28;20055;-61
2023/01/31 14:12:02;;;;;;;;;;;;;;;;;;5070351;28;20031;-61
2023/01/31 14:14:36;;;;;;;8.80;2.25;;;;;;;;;;5068074;28;19912;-61
2023/01/31 14:17:08;;;;;;;9.57;2.13;;;;;;;;;;5070712;28;20078;-61
2023/01/31 14:19:42;;;;;;;9.43;2.30;;;;;;;;;;5065953;28;20485;-64
2023/01/31 14:22:19;;;;;;;7.68;1.95;;;;;;;;;;5073009;28;20032;-61
2023/01/31 14:24:48;;;;;;;7.15;1.90;;;;;;;;;;5062660;28;20096;-61
2023/01/31 14:27:21;;;;;;;10.50;2.00;;;;;;;;;;5066062;28;20108;-61
2023/01/31 14:29:47;;;;;;;8.75;1.92;;;;;;;;;;5072722;28;20457;-61
2023/01/31 14:32:24;;;;;;;6.10;1.90;;;;;;;;;;5061769;28;20031;-62
2023/01/31 14:34:49;;;;;;;8.52;2.15;;;;;;;;;;5067764;28;20036;-61
2023/01/31 14:37:31;;;;;;;7.67;2.20;;;;;;;;;;5073910;28;20024;-61
2023/01/31 14:40:14;;;;;;;8.40;2.10;;;;;;;;;;5071391;28;20016;-61
2023/01/31 14:43:00;;;;;;;9.55;1.85;;;;;;;;;;5067272;28;20040;-61
2023/01/31 14:45:36;;;;;;;9.43;2.03;;;;;;;;;;5067687;28;20028;-61
2023/01/31 14:48:20;;;;;;;7.22;1.90;;;;;;;;;;5070548;28;20104;-61
2023/01/31 14:50:52;;;;;;;7.78;2.03;;;;;;;;;;5065015;28;20473;-62
2023/01/31 14:53:43;;;;;;;10.45;2.67;;;;;;;;;;5071485;28;20095;-63
2023/01/31 14:56:15;;;;;;;9.20;2.00;;;;;;;;;;5055323;28;20097;-61
2023/01/31 14:58:44;;;;;;;9.48;2.10;;;;;;;;;;5065848;28;20024;-62